Terminal Aerodrome Forecast
Issued by NWS Greer, SC

Home | Current Version | Previous Version | Text Only | Print | Product List | Glossary On
Versions: 1 2 3 4 5 6 7 8 9 10 11 12 13 14
000
FTUS42 KGSP 260535
TAFGSP
TAF
KGSP 260535Z 2606/2706 22003KT P6SM FEW070 BKN250
     FM261600 23008KT P6SM SCT060 BKN250
     FM262100 22007KT P6SM BKN060 PROB30 2621/2701 4SM -TSRA
      OVC025CB
     FM270200 21003KT P6SM BKN060=

USA.gov is the U.S. government's official web portal to all federal, state and local government web resources and services.